createdAt,value
2023-04-02T00:00:44.679Z,29.23
2023-04-02T00:01:44.716Z,29.23
2023-04-02T00:02:44.695Z,29.21
2023-04-02T00:03:44.770Z,29.30
2023-04-02T00:04:44.682Z,29.24
2023-04-02T00:05:44.683Z,29.21
2023-04-02T00:06:44.728Z,29.21
2023-04-02T00:07:44.694Z,29.23
2023-04-02T00:08:44.687Z,29.27
2023-04-02T00:09:44.668Z,29.25
2023-04-02T00:10:44.664Z,29.24
2023-04-02T00:11:44.669Z,29.25
2023-04-02T00:12:44.675Z,29.23
2023-04-02T00:13:44.684Z,29.24
2023-04-02T00:14:44.672Z,29.26
2023-04-02T00:15:44.662Z,29.21
2023-04-02T00:16:44.755Z,29.20
2023-04-02T00:17:44.654Z,29.27
2023-04-02T00:18:44.676Z,29.24
2023-04-02T00:19:44.681Z,29.20
2023-04-02T00:20:44.660Z,29.20
2023-04-02T00:21:44.638Z,29.18
2023-04-02T00:22:44.645Z,29.23
2023-04-02T00:23:44.658Z,29.24
2023-04-02T00:24:44.652Z,29.25
2023-04-02T00:25:44.648Z,29.27
2023-04-02T00:26:44.632Z,29.24
2023-04-02T00:27:44.641Z,29.24
2023-04-02T00:28:44.652Z,29.24
2023-04-02T00:29:44.649Z,29.28
2023-04-02T00:30:44.648Z,29.27
2023-04-02T00:31:44.672Z,29.21
2023-04-02T00:32:44.698Z,29.22
2023-04-02T00:33:44.684Z,29.24
2023-04-02T00:34:44.709Z,29.21
2023-04-02T00:35:44.739Z,29.24
2023-04-02T00:36:44.718Z,29.25
2023-04-02T00:37:44.729Z,29.26
2023-04-02T00:38:46.054Z,29.29
2023-04-02T00:39:44.715Z,29.24
2023-04-02T00:40:44.743Z,29.20
2023-04-02T00:41:44.725Z,29.24
2023-04-02T00:42:44.811Z,29.25
2023-04-02T00:43:44.738Z,29.25
2023-04-02T00:44:44.758Z,29.19
2023-04-02T00:45:44.782Z,29.24
2023-04-02T00:46:44.723Z,29.25
2023-04-02T00:47:44.741Z,29.25
2023-04-02T00:48:44.762Z,29.24
2023-04-02T00:49:44.740Z,29.24
2023-04-02T00:50:44.725Z,29.22
2023-04-02T00:51:44.725Z,29.22
2023-04-02T00:52:44.729Z,29.22
2023-04-02T00:53:44.728Z,29.21
2023-04-02T00:54:44.769Z,29.22
2023-04-02T00:55:44.800Z,29.24
2023-04-02T00:56:44.824Z,29.25
2023-04-02T00:57:44.863Z,29.24
2023-04-02T00:58:44.879Z,29.22
2023-04-02T00:59:44.936Z,29.24
2023-04-02T01:00:44.939Z,29.21
2023-04-02T01:01:45.005Z,29.21
2023-04-02T01:02:45.057Z,29.22
2023-04-02T01:03:45.107Z,29.25
2023-04-02T01:04:45.082Z,29.24
2023-04-02T01:05:45.111Z,29.22
2023-04-02T01:06:45.139Z,29.16
2023-04-02T01:07:45.170Z,29.21
2023-04-02T01:08:45.208Z,29.25
2023-04-02T01:09:45.230Z,29.24
2023-04-02T01:10:45.274Z,29.21
2023-04-02T01:11:45.287Z,29.22
2023-04-02T01:12:45.335Z,29.23
2023-04-02T01:13:45.362Z,29.24
2023-04-02T01:14:45.433Z,29.25
2023-04-02T01:15:45.437Z,29.23
2023-04-02T01:16:45.459Z,29.22
2023-04-02T01:17:45.524Z,29.22
2023-04-02T01:18:45.522Z,29.25
2023-04-02T01:19:45.577Z,29.23
2023-04-02T01:20:45.608Z,29.25
2023-04-02T01:21:45.630Z,29.20
2023-04-02T01:22:45.664Z,29.23
2023-04-02T01:23:45.699Z,29.23
2023-04-02T01:24:45.739Z,29.21
2023-04-02T01:25:45.783Z,29.20
2023-04-02T01:26:45.815Z,29.19
2023-04-02T01:27:45.832Z,29.19
2023-04-02T01:28:45.878Z,29.23
2023-04-02T01:29:45.914Z,29.25
2023-04-02T01:30:45.952Z,29.26
2023-04-02T01:31:46.042Z,29.28
2023-04-02T01:32:46.090Z,29.23
2023-04-02T01:33:46.082Z,29.21
2023-04-02T01:34:46.097Z,29.29
2023-04-02T01:35:46.137Z,29.23
2023-04-02T01:36:46.149Z,29.22
2023-04-02T01:37:46.198Z,29.23
2023-04-02T01:38:46.231Z,29.25
2023-04-02T01:39:46.256Z,29.22
2023-04-02T01:40:46.291Z,29.22
2023-04-02T01:41:46.366Z,29.23
2023-04-02T01:42:46.383Z,29.23
2023-04-02T01:43:46.424Z,29.23
2023-04-02T01:44:46.445Z,29.17
2023-04-02T01:45:46.488Z,29.26
2023-04-02T01:46:46.542Z,29.20
2023-04-02T01:47:46.623Z,29.23
2023-04-02T01:48:46.578Z,29.28
2023-04-02T01:49:46.621Z,29.26
2023-04-02T01:50:46.638Z,29.25
2023-04-02T01:51:46.667Z,29.26
2023-04-02T01:52:46.704Z,29.23
2023-04-02T01:53:46.735Z,29.22
2023-04-02T01:54:46.816Z,29.28
2023-04-02T01:55:46.816Z,29.20
2023-04-02T01:56:46.927Z,29.20
2023-04-02T01:57:46.889Z,29.25
2023-04-02T01:58:46.919Z,29.26
2023-04-02T01:59:46.972Z,29.27
2023-04-02T02:00:47.036Z,29.26
2023-04-02T02:01:47.066Z,29.26
2023-04-02T02:02:47.163Z,29.25
2023-04-02T02:03:47.113Z,29.29
2023-04-02T02:04:47.164Z,29.23
2023-04-02T02:05:47.192Z,29.20
2023-04-02T02:06:47.220Z,29.22
2023-04-02T02:07:47.245Z,29.24
2023-04-02T02:08:47.314Z,29.28
2023-04-02T02:09:47.362Z,29.23
2023-04-02T02:10:47.366Z,29.24
2023-04-02T02:11:47.413Z,29.26
2023-04-02T02:12:47.447Z,29.23
2023-04-02T02:13:47.470Z,29.28
2023-04-02T02:14:47.501Z,29.24
2023-04-02T02:15:47.534Z,29.27
2023-04-02T02:16:47.625Z,29.19
2023-04-02T02:17:47.652Z,29.24
2023-04-02T02:18:47.636Z,29.21
2023-04-02T02:19:47.700Z,29.26
2023-04-02T02:20:47.712Z,29.24
2023-04-02T02:21:47.743Z,29.26
2023-04-02T02:22:47.788Z,29.19
2023-04-02T02:23:47.833Z,29.26
2023-04-02T02:24:47.873Z,29.24
2023-04-02T02:25:47.882Z,29.27
2023-04-02T02:26:47.933Z,29.26
2023-04-02T02:27:47.971Z,29.20
2023-04-02T02:28:48.003Z,29.27
2023-04-02T02:29:48.056Z,29.26
2023-04-02T02:30:48.078Z,29.23
2023-04-02T02:31:48.130Z,29.22
2023-04-02T02:32:48.237Z,29.23
2023-04-02T02:33:48.193Z,29.24
2023-04-02T02:34:48.224Z,29.24
2023-04-02T02:35:48.277Z,29.24
2023-04-02T02:36:48.305Z,29.21
2023-04-02T02:37:48.341Z,29.23
2023-04-02T02:38:48.392Z,29.26
2023-04-02T02:39:48.532Z,29.27
2023-04-02T02:40:48.450Z,29.27
2023-04-02T02:41:48.477Z,29.24
2023-04-02T02:42:48.528Z,29.24
2023-04-02T02:43:48.549Z,29.22
2023-04-02T02:44:48.582Z,29.26
2023-04-02T02:45:48.641Z,29.24
2023-04-02T02:46:48.650Z,29.24
2023-04-02T02:47:48.686Z,29.24
2023-04-02T02:48:48.721Z,29.23
2023-04-02T02:49:48.745Z,29.23
2023-04-02T02:50:48.794Z,29.24
2023-04-02T02:51:48.824Z,29.24
2023-04-02T02:52:48.863Z,29.23
2023-04-02T02:53:48.917Z,29.28
2023-04-02T02:54:48.928Z,29.17
2023-04-02T02:55:48.965Z,29.23
2023-04-02T02:56:49.026Z,29.20
2023-04-02T02:57:49.028Z,29.27
2023-04-02T02:58:49.035Z,29.20
2023-04-02T02:59:49.042Z,29.24
2023-04-02T03:00:49.060Z,29.24
2023-04-02T03:01:49.049Z,29.24
2023-04-02T03:02:49.109Z,29.26
2023-04-02T03:03:49.095Z,29.28
2023-04-02T03:04:49.054Z,29.20
2023-04-02T03:05:49.056Z,29.26
2023-04-02T03:06:49.046Z,29.27
2023-04-02T03:07:49.034Z,29.21
2023-04-02T03:08:49.123Z,29.24
2023-04-02T03:09:49.047Z,29.32
2023-04-02T03:10:49.046Z,29.24
2023-04-02T03:11:49.036Z,29.24
2023-04-02T03:12:49.036Z,29.27
2023-04-02T03:13:49.037Z,29.20
2023-04-02T03:14:49.037Z,29.28
2023-04-02T03:15:49.054Z,29.27
2023-04-02T03:16:49.045Z,29.23
2023-04-02T03:17:49.031Z,29.26
2023-04-02T03:18:49.044Z,29.26
2023-04-02T03:19:49.029Z,29.24
2023-04-02T03:20:49.051Z,29.23
2023-04-02T03:21:49.034Z,29.26
2023-04-02T03:22:49.026Z,29.23
2023-04-02T03:23:49.027Z,29.24
2023-04-02T03:24:49.036Z,29.25
2023-04-02T03:25:49.014Z,29.26
2023-04-02T03:26:49.007Z,29.23
2023-04-02T03:27:49.019Z,29.23
2023-04-02T03:28:49.014Z,29.24
2023-04-02T03:29:49.004Z,29.25
2023-04-02T03:30:49.005Z,29.23
2023-04-02T03:31:49.002Z,29.23
2023-04-02T03:32:49.072Z,29.27
2023-04-02T03:33:49.082Z,29.25
2023-04-02T03:34:49.135Z,29.21
2023-04-02T03:35:49.208Z,29.17
2023-04-02T03:36:49.221Z,29.25
2023-04-02T03:37:49.256Z,29.20
2023-04-02T03:38:49.296Z,29.23
2023-04-02T03:39:49.348Z,29.25
2023-04-02T03:40:49.405Z,29.23
2023-04-02T03:41:49.417Z,29.27
2023-04-02T03:42:49.482Z,29.21
2023-04-02T03:43:49.477Z,29.28
2023-04-02T03:44:49.520Z,29.23
2023-04-02T03:45:49.562Z,29.27
2023-04-02T03:46:49.717Z,29.28
2023-04-02T03:47:49.685Z,29.28
2023-04-02T03:48:49.677Z,29.21
2023-04-02T03:49:49.728Z,29.21
2023-04-02T03:50:49.786Z,29.24
2023-04-02T03:51:49.829Z,29.23
2023-04-02T03:52:49.861Z,29.27
2023-04-02T03:53:49.912Z,29.23
2023-04-02T03:54:54.264Z,29.22
2023-04-02T03:55:49.953Z,29.24
2023-04-02T03:56:49.955Z,29.25
2023-04-02T03:57:49.932Z,29.23
2023-04-02T03:58:49.931Z,29.25
2023-04-02T03:59:49.938Z,29.24
2023-04-02T04:00:49.993Z,29.25
2023-04-02T04:01:50.009Z,29.23
2023-04-02T04:02:49.947Z,29.23
2023-04-02T04:03:50.009Z,29.19
2023-04-02T04:04:49.941Z,29.28
2023-04-02T04:05:49.945Z,29.24
2023-04-02T04:06:49.954Z,29.24
2023-04-02T04:07:49.945Z,29.25
2023-04-02T04:08:49.944Z,29.25
2023-04-02T04:09:49.937Z,29.22
2023-04-02T04:10:49.960Z,29.22
2023-04-02T04:11:49.940Z,29.25
2023-04-02T04:12:49.923Z,29.22
2023-04-02T04:13:49.923Z,29.22
2023-04-02T04:14:49.910Z,29.19
2023-04-02T04:15:49.918Z,29.23
2023-04-02T04:16:49.958Z,29.23
2023-04-02T04:17:49.980Z,29.25
2023-04-02T04:18:49.986Z,29.25
2023-04-02T04:19:50.030Z,29.23
2023-04-02T04:20:50.070Z,29.25
2023-04-02T04:21:50.117Z,29.25
2023-04-02T04:22:50.172Z,29.24
2023-04-02T04:23:50.242Z,29.32
2023-04-02T04:24:50.269Z,29.27
2023-04-02T04:25:50.316Z,29.27
2023-04-02T04:26:50.370Z,29.23
2023-04-02T04:27:50.428Z,29.29
2023-04-02T04:28:50.467Z,29.23
2023-04-02T04:29:50.518Z,29.25
2023-04-02T04:30:50.554Z,29.25
2023-04-02T04:31:50.721Z,29.25
2023-04-02T04:32:50.673Z,29.22
2023-04-02T04:33:50.715Z,29.29
2023-04-02T04:34:50.757Z,29.25
2023-04-02T04:35:50.847Z,29.28
2023-04-02T04:36:50.859Z,29.25
2023-04-02T04:37:50.897Z,29.26
2023-04-02T04:38:50.946Z,29.26
2023-04-02T04:39:51.011Z,29.23
2023-04-02T04:40:51.057Z,29.28
2023-04-02T04:41:51.103Z,29.26
2023-04-02T04:42:51.148Z,29.23
2023-04-02T04:43:51.198Z,29.25
2023-04-02T04:44:51.233Z,29.23
2023-04-02T04:45:51.359Z,29.28
2023-04-02T04:46:51.361Z,29.26
2023-04-02T04:47:51.394Z,29.26
2023-04-02T04:48:51.426Z,29.28
2023-04-02T04:49:51.470Z,29.21
2023-04-02T04:50:51.509Z,29.22
2023-04-02T04:51:51.587Z,29.31
2023-04-02T04:52:51.625Z,29.19
2023-04-02T04:53:51.683Z,29.21
2023-04-02T04:54:51.746Z,29.23
2023-04-02T04:55:51.786Z,29.23
2023-04-02T04:56:51.878Z,29.25
2023-04-02T04:57:51.905Z,29.25
2023-04-02T04:58:51.962Z,29.25
2023-04-02T04:59:52.005Z,29.22
2023-04-02T05:00:52.050Z,29.25
2023-04-02T05:01:52.261Z,29.19
2023-04-02T05:02:52.147Z,29.26
2023-04-02T05:03:52.174Z,29.29
2023-04-02T05:04:52.270Z,29.22
2023-04-02T05:05:52.281Z,29.23
2023-04-02T05:06:52.344Z,29.26
2023-04-02T05:07:52.397Z,29.21
2023-04-02T05:08:52.423Z,29.26
2023-04-02T05:09:52.480Z,29.19
2023-04-02T05:10:52.524Z,29.26
2023-04-02T05:11:52.586Z,29.25
2023-04-02T05:12:52.635Z,29.26
2023-04-02T05:13:52.655Z,29.19
2023-04-02T05:14:52.671Z,29.25
2023-04-02T05:15:52.787Z,29.23
2023-04-02T05:16:52.729Z,29.20
2023-04-02T05:17:52.809Z,29.22
2023-04-02T05:18:52.792Z,29.28
2023-04-02T05:19:52.811Z,29.23
2023-04-02T05:20:52.839Z,29.22
2023-04-02T05:21:52.866Z,29.21
2023-04-02T05:22:52.891Z,29.26
2023-04-02T05:23:52.911Z,29.21
2023-04-02T05:24:52.936Z,29.22
2023-04-02T05:25:52.971Z,29.25
2023-04-02T05:26:53.001Z,29.23
2023-04-02T05:27:53.022Z,29.25
2023-04-02T05:28:53.093Z,29.21
2023-04-02T05:29:53.105Z,29.21
2023-04-02T05:30:53.132Z,29.18
2023-04-02T05:31:53.188Z,29.22
2023-04-02T05:32:53.286Z,29.23
2023-04-02T05:33:53.297Z,29.19
2023-04-02T05:34:53.342Z,29.21
2023-04-02T05:35:53.434Z,29.27
2023-04-02T05:36:53.460Z,29.23
2023-04-02T05:37:53.514Z,29.19
2023-04-02T05:38:53.547Z,29.19
2023-04-02T05:39:53.597Z,29.19
2023-04-02T05:40:53.650Z,29.15
2023-04-02T05:41:53.710Z,29.19
2023-04-02T05:42:53.771Z,29.16
2023-04-02T05:43:53.833Z,29.19
2023-04-02T05:44:53.868Z,29.18
2023-04-02T05:45:53.930Z,29.18
2023-04-02T05:46:54.062Z,29.15
2023-04-02T05:47:54.088Z,29.12
2023-04-02T05:48:54.055Z,29.15
2023-04-02T05:49:54.103Z,29.14
2023-04-02T05:50:54.144Z,29.13
2023-04-02T05:51:55.426Z,29.15
2023-04-02T05:52:54.248Z,29.17
2023-04-02T05:53:54.294Z,29.15
2023-04-02T05:54:54.346Z,29.17
2023-04-02T05:55:54.382Z,29.10
2023-04-02T05:56:54.453Z,29.18
2023-04-02T05:58:13.324Z,29.11
2023-04-02T05:58:55.558Z,29.14
2023-04-02T05:59:54.494Z,29.15
2023-04-02T06:00:54.481Z,29.12
2023-04-02T06:01:54.540Z,29.11
2023-04-02T06:02:54.573Z,29.14
2023-04-02T06:03:54.558Z,29.11
2023-04-02T06:04:54.505Z,29.07
2023-04-02T06:05:54.511Z,29.11
2023-04-02T06:06:54.501Z,29.06
2023-04-02T06:07:54.526Z,29.10
2023-04-02T06:08:54.514Z,29.08
2023-04-02T06:09:54.524Z,29.13
2023-04-02T06:10:54.591Z,29.10
2023-04-02T06:11:54.541Z,29.06
2023-04-02T06:12:54.607Z,29.08
2023-04-02T06:13:54.618Z,29.05
2023-04-02T06:14:54.665Z,29.10
2023-04-02T06:15:54.698Z,29.10
2023-04-02T06:16:54.767Z,29.10
2023-04-02T06:17:54.831Z,29.07
2023-04-02T06:18:54.852Z,29.07
2023-04-02T06:19:54.894Z,29.08
2023-04-02T06:20:54.930Z,29.07
2023-04-02T06:21:54.991Z,29.10
2023-04-02T06:22:55.015Z,29.07
2023-04-02T06:23:55.062Z,29.07
2023-04-02T06:24:55.097Z,28.98
2023-04-02T06:25:55.160Z,29.04
2023-04-02T06:26:55.181Z,29.07
2023-04-02T06:27:55.253Z,29.01
2023-04-02T06:28:55.254Z,29.04
2023-04-02T06:29:55.299Z,29.04
2023-04-02T06:30:55.371Z,29.05
2023-04-02T06:31:55.381Z,29.05
2023-04-02T06:32:55.451Z,29.00
2023-04-02T06:33:55.477Z,29.00
2023-04-02T06:34:55.504Z,29.09
2023-04-02T06:35:55.591Z,29.05
2023-04-02T06:36:55.624Z,29.03
2023-04-02T06:37:55.641Z,29.03
2023-04-02T06:38:55.669Z,29.01
2023-04-02T06:39:55.718Z,29.03
2023-04-02T06:40:56.968Z,28.99
2023-04-02T06:41:55.771Z,28.99
2023-04-02T06:42:55.760Z,29.00
2023-04-02T06:43:55.752Z,28.99
2023-04-02T06:44:55.749Z,29.01
2023-04-02T06:45:55.762Z,29.00
2023-04-02T06:46:55.767Z,29.01
2023-04-02T06:47:55.872Z,28.96
2023-04-02T06:48:55.766Z,28.96
2023-04-02T06:49:55.774Z,28.99
2023-04-02T06:50:55.749Z,28.96
2023-04-02T06:51:55.758Z,28.97
2023-04-02T06:52:55.751Z,28.99
2023-04-02T06:53:55.752Z,28.99
2023-04-02T06:54:55.777Z,28.97
2023-04-02T06:55:55.745Z,28.91
2023-04-02T06:56:55.784Z,28.97
2023-04-02T06:57:55.771Z,28.95
2023-04-02T06:58:55.783Z,28.96
2023-04-02T06:59:55.768Z,28.97
2023-04-02T07:00:55.756Z,28.96
2023-04-02T07:01:55.829Z,28.94
2023-04-02T07:02:55.750Z,28.91
2023-04-02T07:03:55.768Z,28.93
2023-04-02T07:04:55.804Z,28.95
2023-04-02T07:05:55.738Z,28.90
2023-04-02T07:06:55.749Z,28.92
2023-04-02T07:07:55.745Z,28.92
2023-04-02T07:08:55.751Z,28.88
2023-04-02T07:09:55.764Z,28.83
2023-04-02T07:10:55.756Z,28.87
2023-04-02T07:11:55.740Z,28.83
2023-04-02T07:12:55.751Z,28.84
2023-04-02T07:13:55.754Z,28.81
2023-04-02T07:14:55.785Z,28.84
2023-04-02T07:15:55.798Z,28.81
2023-04-02T07:16:55.743Z,28.78
2023-04-02T07:17:55.769Z,28.79
2023-04-02T07:18:55.783Z,28.80
2023-04-02T07:19:55.724Z,28.81
2023-04-02T07:20:55.728Z,28.77
2023-04-02T07:21:55.728Z,28.78
2023-04-02T07:22:55.725Z,28.76
2023-04-02T07:23:55.732Z,28.73
2023-04-02T07:24:55.700Z,28.80
2023-04-02T07:25:55.714Z,28.76
2023-04-02T07:26:55.686Z,28.76
2023-04-02T07:27:55.698Z,28.74
2023-04-02T07:28:55.682Z,28.74
2023-04-02T07:29:55.673Z,28.74
2023-04-02T07:30:55.663Z,28.73
2023-04-02T07:31:55.761Z,28.69
2023-04-02T07:32:55.735Z,28.66
2023-04-02T07:33:55.635Z,28.73
2023-04-02T07:34:55.635Z,28.67
2023-04-02T07:35:55.635Z,28.70
2023-04-02T07:36:55.619Z,28.72
2023-04-02T07:37:55.623Z,28.68
2023-04-02T07:38:55.604Z,28.70
2023-04-02T07:39:55.612Z,28.69
2023-04-02T07:40:55.606Z,28.70
2023-04-02T07:41:55.628Z,28.68
2023-04-02T07:42:55.609Z,28.67
2023-04-02T07:43:55.583Z,28.66
2023-04-02T07:44:55.583Z,28.66
2023-04-02T07:45:55.568Z,28.72
2023-04-02T07:46:55.592Z,28.75
2023-04-02T07:47:55.624Z,28.75
2023-04-02T07:48:55.563Z,28.75
2023-04-02T07:49:55.533Z,28.79
2023-04-02T07:50:55.541Z,28.78
2023-04-02T07:51:55.521Z,28.85
2023-04-02T07:52:55.536Z,28.86
2023-04-02T07:53:55.527Z,28.77
2023-04-02T07:54:55.524Z,28.80
2023-04-02T07:55:55.509Z,28.85
2023-04-02T07:56:55.519Z,28.88
2023-04-02T07:57:55.496Z,28.82
2023-04-02T07:58:55.519Z,28.80
2023-04-02T07:59:55.492Z,28.83
2023-04-02T08:00:55.500Z,28.82
2023-04-02T08:01:55.484Z,28.85
2023-04-02T08:02:55.570Z,28.83
2023-04-02T08:03:55.509Z,28.82
2023-04-02T08:04:55.470Z,28.86
2023-04-02T08:05:55.445Z,28.89
2023-04-02T08:06:55.445Z,28.92
2023-04-02T08:07:55.485Z,28.92
2023-04-02T08:08:55.430Z,28.89
2023-04-02T08:09:55.411Z,28.91
2023-04-02T08:10:55.398Z,28.96
2023-04-02T08:11:55.404Z,28.99
2023-04-02T08:12:55.485Z,28.95
2023-04-02T08:13:55.522Z,28.93
2023-04-02T08:14:55.508Z,28.91
2023-04-02T08:15:55.498Z,28.83
2023-04-02T08:16:55.574Z,28.89
2023-04-02T08:17:55.510Z,28.81
2023-04-02T08:18:55.474Z,28.83
2023-04-02T08:19:55.537Z,28.80
2023-04-02T08:20:55.459Z,28.83
2023-04-02T08:21:55.438Z,28.80
2023-04-02T08:22:55.483Z,28.80
2023-04-02T08:23:55.545Z,28.79
2023-04-02T08:24:55.570Z,28.73
2023-04-02T08:25:55.627Z,28.76
2023-04-02T08:26:55.680Z,28.71
2023-04-02T08:27:55.710Z,28.72
2023-04-02T08:28:55.827Z,28.69
2023-04-02T08:29:55.837Z,28.65
2023-04-02T08:30:55.946Z,28.64
2023-04-02T08:31:55.905Z,28.69
2023-04-02T08:32:55.981Z,28.69
2023-04-02T08:33:55.983Z,28.72
2023-04-02T08:34:56.025Z,28.69
2023-04-02T08:35:56.076Z,28.75
2023-04-02T08:36:56.099Z,28.72
2023-04-02T08:37:56.129Z,28.75
2023-04-02T08:38:56.173Z,28.79
2023-04-02T08:39:56.195Z,28.75
2023-04-02T08:40:56.232Z,28.79
2023-04-02T08:41:56.244Z,28.74
2023-04-02T08:42:56.293Z,28.75
2023-04-02T08:43:56.324Z,28.75
2023-04-02T08:44:56.366Z,28.81
2023-04-02T08:45:56.408Z,28.85
2023-04-02T08:46:56.417Z,28.80
2023-04-02T08:47:56.654Z,28.83
2023-04-02T08:48:56.485Z,28.85
2023-04-02T08:49:56.508Z,28.78
2023-04-02T08:50:56.550Z,28.83
2023-04-02T08:51:56.579Z,28.81
2023-04-02T08:52:56.624Z,28.77
2023-04-02T08:53:56.694Z,28.77
2023-04-02T08:54:56.671Z,28.68
2023-04-02T08:55:56.711Z,28.69
2023-04-02T08:56:56.765Z,28.66
2023-04-02T08:57:56.792Z,28.69
2023-04-02T08:58:56.829Z,28.69
2023-04-02T08:59:56.842Z,28.67
2023-04-02T09:00:56.905Z,28.67
2023-04-02T09:01:57.021Z,28.69
2023-04-02T09:02:56.970Z,28.66
2023-04-02T09:03:56.990Z,28.63
2023-04-02T09:04:57.037Z,28.63
2023-04-02T09:05:57.050Z,28.65
2023-04-02T09:06:57.084Z,28.63
2023-04-02T09:07:57.101Z,28.58
2023-04-02T09:08:57.143Z,28.65
2023-04-02T09:09:57.177Z,28.58
2023-04-02T09:10:57.197Z,28.56
2023-04-02T09:11:57.241Z,28.58
2023-04-02T09:12:57.262Z,28.55
2023-04-02T09:13:57.301Z,28.54
2023-04-02T09:14:57.338Z,28.51
2023-04-02T09:15:57.402Z,28.48
2023-04-02T09:16:57.390Z,28.47
2023-04-02T09:17:59.054Z,28.44
2023-04-02T09:18:57.470Z,28.45
2023-04-02T09:19:57.519Z,28.47
2023-04-02T09:20:57.525Z,28.43
2023-04-02T09:21:57.566Z,28.39
2023-04-02T09:22:57.593Z,28.40
2023-04-02T09:23:57.618Z,28.37
2023-04-02T09:24:57.661Z,28.40
2023-04-02T09:26:04.255Z,28.39
2023-04-02T09:26:58.673Z,28.41
2023-04-02T09:27:57.669Z,28.41
2023-04-02T09:28:57.664Z,28.37
2023-04-02T09:29:57.653Z,28.40
2023-04-02T09:30:57.640Z,28.32
2023-04-02T09:31:57.741Z,28.32
2023-04-02T09:32:57.658Z,28.29
2023-04-02T09:33:57.613Z,28.35
2023-04-02T09:34:57.631Z,28.29
2023-04-02T09:35:57.660Z,28.29
2023-04-02T09:36:57.611Z,28.27
2023-04-02T09:37:57.586Z,28.21
2023-04-02T09:38:57.578Z,28.23
2023-04-02T09:39:57.585Z,28.28
2023-04-02T09:40:57.577Z,28.24
2023-04-02T09:42:05.109Z,28.21
2023-04-02T09:42:58.574Z,28.31
2023-04-02T09:43:57.558Z,28.27
2023-04-02T09:44:57.562Z,28.23
2023-04-02T09:45:57.582Z,28.23
2023-04-02T09:46:57.576Z,28.28
2023-04-02T09:47:57.557Z,28.25
2023-04-02T09:48:57.534Z,28.30
2023-04-02T09:49:57.539Z,28.28
2023-04-02T09:50:57.517Z,28.25
2023-04-02T09:51:57.509Z,28.20
2023-04-02T09:52:57.520Z,28.16
2023-04-02T09:53:57.497Z,28.07
2023-04-02T09:54:57.510Z,28.05
2023-04-02T09:55:57.493Z,28.02
2023-04-02T09:56:57.545Z,27.98
2023-04-02T09:57:57.484Z,28.00
2023-04-02T09:58:57.476Z,28.05
2023-04-02T09:59:57.455Z,28.01
2023-04-02T10:00:57.485Z,28.07
2023-04-02T10:01:57.438Z,28.04
2023-04-02T10:02:57.516Z,28.08
2023-04-02T10:03:57.509Z,28.02
2023-04-02T10:04:57.523Z,28.04
2023-04-02T10:05:57.505Z,28.00
2023-04-02T10:06:57.512Z,28.02
2023-04-02T10:07:57.534Z,28.03
2023-04-02T10:08:57.538Z,27.96
2023-04-02T10:09:57.560Z,27.96
2023-04-02T10:10:57.548Z,27.90
2023-04-02T10:11:57.562Z,27.89
2023-04-02T10:12:57.575Z,27.91
2023-04-02T10:13:57.548Z,27.91
2023-04-02T10:14:57.569Z,27.87
2023-04-02T10:15:57.561Z,27.86
2023-04-02T10:16:57.584Z,27.86
2023-04-02T10:17:57.603Z,27.86
2023-04-02T10:18:57.562Z,27.81
2023-04-02T10:19:57.581Z,27.80
2023-04-02T10:20:57.566Z,27.78
2023-04-02T10:21:57.560Z,27.78
2023-04-02T10:22:57.562Z,27.78
2023-04-02T10:23:57.559Z,27.78
2023-04-02T10:24:57.580Z,27.81
2023-04-02T10:25:57.566Z,27.81
2023-04-02T10:26:57.588Z,27.82
2023-04-02T10:27:57.578Z,27.85
2023-04-02T10:28:57.579Z,27.88
2023-04-02T10:29:57.609Z,27.86
2023-04-02T10:30:57.652Z,27.82
2023-04-02T10:31:57.654Z,27.84
2023-04-02T10:32:57.691Z,27.83
2023-04-02T10:33:57.701Z,27.85
2023-04-02T10:34:57.753Z,27.89
2023-04-02T10:35:57.764Z,27.91
2023-04-02T10:36:57.800Z,27.90
2023-04-02T10:37:57.774Z,27.94
2023-04-02T10:38:57.771Z,27.95
2023-04-02T10:39:57.758Z,27.95
2023-04-02T10:40:57.754Z,27.95
2023-04-02T10:41:57.757Z,28.02
2023-04-02T10:42:57.758Z,28.01
2023-04-02T10:43:59.376Z,27.99
2023-04-02T10:44:58.732Z,27.97
2023-04-02T10:45:57.737Z,27.98
2023-04-02T10:46:57.727Z,27.97
2023-04-02T10:47:57.721Z,27.96
2023-04-02T10:48:57.689Z,27.93
2023-04-02T10:49:58.155Z,27.93
2023-04-02T10:50:57.669Z,27.90
2023-04-02T10:51:57.657Z,27.94
2023-04-02T10:52:57.642Z,27.91
2023-04-02T10:53:57.633Z,27.97
2023-04-02T10:54:57.644Z,27.90
2023-04-02T10:55:57.603Z,27.92
2023-04-02T10:56:57.623Z,27.93
2023-04-02T10:57:57.633Z,27.90
2023-04-02T10:58:57.709Z,27.89
2023-04-02T10:59:57.704Z,27.84
2023-04-02T11:00:57.730Z,27.87
2023-04-02T11:01:57.841Z,27.92
2023-04-02T11:02:57.888Z,27.90
2023-04-02T11:03:58.335Z,27.92
2023-04-02T11:04:59.323Z,27.90
2023-04-02T11:05:57.845Z,27.89
2023-04-02T11:07:07.084Z,27.87
2023-04-02T11:07:58.814Z,27.92
2023-04-02T11:08:57.806Z,27.92
2023-04-02T11:09:57.784Z,27.96
2023-04-02T11:10:57.785Z,27.94
2023-04-02T11:11:57.754Z,27.98
2023-04-02T11:12:57.748Z,27.96
2023-04-02T11:13:57.725Z,27.94
2023-04-02T11:14:57.724Z,27.92
2023-04-02T11:15:57.729Z,27.94
2023-04-02T11:16:57.753Z,27.87
2023-04-02T11:17:57.839Z,27.86
2023-04-02T11:18:57.880Z,27.85
2023-04-02T11:19:57.857Z,27.76
2023-04-02T11:20:57.867Z,27.73
2023-04-02T11:21:59.930Z,27.71
2023-04-02T11:22:57.811Z,27.70
2023-04-02T11:23:57.795Z,27.68
2023-04-02T11:24:57.783Z,27.71
2023-04-02T11:25:57.790Z,27.70
2023-04-02T11:26:57.749Z,27.68
2023-04-02T11:27:57.737Z,27.76
2023-04-02T11:28:57.728Z,27.76
2023-04-02T11:29:57.723Z,27.72
2023-04-02T11:30:57.714Z,27.78
2023-04-02T11:31:57.681Z,27.78
2023-04-02T11:32:57.692Z,27.81
2023-04-02T11:33:57.655Z,27.76
2023-04-02T11:35:06.562Z,27.78
2023-04-02T11:35:58.731Z,27.76
2023-04-02T11:36:57.608Z,27.77
2023-04-02T11:37:57.592Z,27.76
2023-04-02T11:39:01.914Z,27.81
2023-04-02T11:39:58.577Z,27.82
2023-04-02T11:40:57.572Z,27.81
2023-04-02T11:41:57.540Z,27.82
2023-04-02T11:42:57.526Z,27.78
2023-04-02T11:43:57.511Z,27.84
2023-04-02T11:44:57.516Z,27.86
2023-04-02T11:45:57.748Z,27.86
2023-04-02T11:46:57.566Z,27.87
2023-04-02T11:47:57.558Z,27.86
2023-04-02T11:48:57.476Z,27.92
2023-04-02T11:49:57.475Z,27.90
2023-04-02T11:50:57.474Z,27.90
2023-04-02T11:52:10.957Z,27.90
2023-04-02T11:52:58.456Z,27.93
2023-04-02T11:53:57.442Z,27.92
2023-04-02T11:54:57.438Z,27.93
2023-04-02T11:55:57.428Z,27.91
2023-04-02T11:56:57.474Z,27.92
2023-04-02T11:57:57.415Z,27.92
2023-04-02T11:58:57.398Z,27.93
2023-04-02T11:59:57.389Z,27.92
2023-04-02T12:00:57.397Z,27.98
2023-04-02T12:01:57.445Z,27.98
2023-04-02T12:02:57.449Z,27.98
2023-04-02T12:03:57.463Z,27.97
2023-04-02T12:04:57.544Z,28.00
2023-04-02T12:05:57.531Z,28.00
2023-04-02T12:06:57.525Z,27.99
2023-04-02T12:07:57.520Z,27.98
2023-04-02T12:08:58.347Z,28.04
2023-04-02T12:09:57.569Z,28.02
2023-04-02T12:10:57.556Z,28.02
2023-04-02T12:11:57.516Z,27.99
2023-04-02T12:12:57.500Z,28.03
2023-04-02T12:13:57.505Z,28.07
2023-04-02T12:14:57.516Z,28.03
2023-04-02T12:15:57.493Z,28.08
2023-04-02T12:16:57.509Z,28.07
2023-04-02T12:17:57.566Z,28.06
2023-04-02T12:18:57.470Z,28.12
2023-04-02T12:19:57.477Z,28.09
2023-04-02T12:20:57.467Z,28.06
2023-04-02T12:21:57.467Z,28.05
2023-04-02T12:22:57.461Z,28.03
2023-04-02T12:23:57.457Z,28.02
2023-04-02T12:24:57.425Z,28.02
2023-04-02T12:25:57.431Z,28.03
2023-04-02T12:26:57.420Z,28.03
2023-04-02T12:27:57.419Z,28.09
2023-04-02T12:28:57.404Z,28.07
2023-04-02T12:29:57.400Z,28.09
2023-04-02T12:30:57.431Z,28.07
2023-04-02T12:31:57.392Z,28.06
2023-04-02T12:32:57.415Z,28.07
2023-04-02T12:33:57.367Z,28.14
2023-04-02T12:34:57.367Z,28.13
2023-04-02T12:35:57.393Z,28.09
2023-04-02T12:36:57.334Z,28.10
2023-04-02T12:37:57.344Z,28.07
2023-04-02T12:38:57.365Z,28.15
2023-04-02T12:39:57.312Z,28.17
2023-04-02T12:40:57.311Z,28.17
2023-04-02T12:41:57.334Z,28.14
2023-04-02T12:42:57.308Z,28.14
2023-04-02T12:43:57.297Z,28.20
2023-04-02T12:44:57.285Z,28.15
2023-04-02T12:45:57.315Z,28.21
2023-04-02T12:46:57.285Z,28.17
2023-04-02T12:47:57.305Z,28.18
2023-04-02T12:48:57.257Z,28.27
2023-04-02T12:49:57.265Z,28.24
2023-04-02T12:50:57.275Z,28.22
2023-04-02T12:51:57.307Z,28.24
2023-04-02T12:52:57.271Z,28.24